Sunderland, Maryland
Current Conditions -  °F | °C
As of 10:58 PM on Wednesday 26 Nov 2014 (Local Time) from KADW Reporting Station
Overcast Overcast  
Wind Chill: 29°   Ceiling: 8000
Heat Index: 37°   Visibility: 10mi
Dew Point: 34°   Wind: 10mph
Humidity: 89%   Direction: 290°WNW
Pressure: 30"   Gusts: NA
Location:  38.67°N, 76.6°W
Report Text: KADW 270358Z AUTO 29009KT 10SM FEW010 BKN080 OVC100 03/01 A3000 RMK AO2 SLP168 T00250009 $
Loading
Personal Weather Stations






























Interactive Weather Map New forecast layout! Learn more

10-Day Weather Forecast

Advertisements
Track Severe Weather on mobile